This is the latest recevied weather packets stored in our database for station/object SP9WPN-12. If no packets are shown the sender has not sent any weather packets the latest 10 day(s).
| Time | Temp. | Humidity | Pressure | Rain* | Wind** | Luminosity | Snow |
|---|---|---|---|---|---|---|---|
| 1777579976 | 6.67° C | 63% | 1029.8 hPa | - | - | - | - |
| 1777579379 | 6.67° C | 60% | 1029.8 hPa | - | - | - | - |
| 1777578781 | 7.22° C | 61% | 1029.8 hPa | - | - | - | - |
| 1777578183 | 7.22° C | 56% | 1029.8 hPa | - | - | - | - |
| 1777577586 | 8.33° C | 54% | 1029.6 hPa | - | - | - | - |
| 1777576989 | 8.33° C | 52% | 1029.6 hPa | - | - | - | - |
| 1777576391 | 8.89° C | 50% | 1029.4 hPa | - | - | - | - |
| 1777575794 | 9.44° C | 50% | 1029.4 hPa | - | - | - | - |
| 1777575195 | 9.44° C | 49% | 1029.3 hPa | - | - | - | - |
| 1777574597 | 10° C | 47% | 1029.1 hPa | - | - | - | - |
| 1777573999 | 10° C | 45% | 1029 hPa | - | - | - | - |
| 1777573401 | 10° C | 45% | 1029 hPa | - | - | - | - |
| 1777572804 | 10.56° C | 44% | 1029 hPa | - | - | - | - |
| 1777572205 | 11.11° C | 41% | 1028.8 hPa | - | - | - | - |
| 1777571606 | 11.11° C | 40% | 1028.8 hPa | - | - | - | - |
| 1777571009 | 11.67° C | 39% | 1028.7 hPa | - | - | - | - |
| 1777570411 | 11.67° C | 39% | 1028.6 hPa | - | - | - | - |
| 1777569813 | 11.67° C | 38% | 1028.6 hPa | - | - | - | - |
| 1777569216 | 11.67° C | 37% | 1028.7 hPa | - | - | - | - |
| 1777568619 | 12.22° C | 35% | 1028.7 hPa | - | - | - | - |
| 1777568021 | 12.78° C | 34% | 1028.5 hPa | - | - | - | - |
| 1777567424 | 13.33° C | 32% | 1028.4 hPa | - | - | - | - |
| 1777566826 | 13.89° C | 30% | 1028.2 hPa | - | - | - | - |
| 1777566229 | 13.33° C | 31% | 1028.3 hPa | - | - | - | - |
| 1777565631 | 13.33° C | 30% | 1028.2 hPa | - | - | - | - |
* Rain since midnight (hover to see other rain measurements)
** Current wind speed in m/s (hover to see current wind gust speed)